createdAt,value
2018-11-28T00:00:56.726Z,1015.90
2018-11-28T00:01:57.366Z,1015.82
2018-11-28T00:02:58.151Z,1015.83
2018-11-28T00:03:58.644Z,1015.86
2018-11-28T00:04:59.322Z,1015.83
2018-11-28T00:05:59.953Z,1015.85
2018-11-28T00:07:00.654Z,1015.83
2018-11-28T00:08:01.259Z,1015.83
2018-11-28T00:09:01.978Z,1015.86
2018-11-28T00:10:02.546Z,1015.83
2018-11-28T00:11:03.225Z,1015.85
2018-11-28T00:12:03.846Z,1015.82
2018-11-28T00:13:04.476Z,1015.78
2018-11-28T00:14:05.130Z,1015.76
2018-11-28T00:15:05.820Z,1015.73
2018-11-28T00:16:06.485Z,1015.76
2018-11-28T00:17:07.088Z,1015.71
2018-11-28T00:18:07.724Z,1015.72
2018-11-28T00:19:08.320Z,1015.68
2018-11-28T00:20:09.032Z,1015.68
2018-11-28T00:21:09.674Z,1015.69
2018-11-28T00:22:10.271Z,1015.63
2018-11-28T00:23:11.000Z,1015.60
2018-11-28T00:24:13.158Z,1015.63
2018-11-28T00:25:13.844Z,1015.59
2018-11-28T00:26:14.491Z,1015.56
2018-11-28T00:27:15.173Z,1015.62
2018-11-28T00:28:15.718Z,1015.60
2018-11-28T00:29:16.447Z,1015.59
2018-11-28T00:30:17.129Z,1015.57
2018-11-28T00:31:17.704Z,1015.58
2018-11-28T00:32:18.317Z,1015.61
2018-11-28T00:33:18.942Z,1015.62
2018-11-28T00:34:19.626Z,1015.59
2018-11-28T00:35:20.239Z,1015.61
2018-11-28T00:36:20.946Z,1015.58
2018-11-28T00:37:21.606Z,1015.61
2018-11-28T00:38:22.241Z,1015.64
2018-11-28T00:39:22.866Z,1015.64
2018-11-28T00:40:23.551Z,1015.63
2018-11-28T00:41:24.105Z,1015.66
2018-11-28T00:42:24.763Z,1015.62
2018-11-28T00:43:25.505Z,1015.60
2018-11-28T00:44:26.153Z,1015.60
2018-11-28T00:45:26.781Z,1015.61
2018-11-28T00:46:27.366Z,1015.54
2018-11-28T00:47:27.987Z,1015.57
2018-11-28T00:48:28.643Z,1015.59
2018-11-28T00:49:29.304Z,1015.58
2018-11-28T00:50:29.917Z,1015.57
2018-11-28T00:51:30.576Z,1015.59
2018-11-28T00:52:31.129Z,1015.59
2018-11-28T00:53:31.827Z,1015.56
2018-11-28T00:54:32.440Z,1015.54
2018-11-28T00:55:33.160Z,1015.58
2018-11-28T00:56:33.740Z,1015.55
2018-11-28T00:57:34.418Z,1015.50
2018-11-28T00:58:34.993Z,1015.54
2018-11-28T00:59:35.702Z,1015.54
2018-11-28T01:00:36.308Z,1015.51
2018-11-28T01:01:37.030Z,1015.44
2018-11-28T01:02:37.872Z,1015.47
2018-11-28T01:03:38.231Z,1015.44
2018-11-28T01:04:38.898Z,1015.49
2018-11-28T01:05:39.536Z,1015.47
2018-11-28T01:06:40.207Z,1015.48
2018-11-28T01:07:40.833Z,1015.48
2018-11-28T01:08:41.466Z,1015.52
2018-11-28T01:09:42.120Z,1015.48
2018-11-28T01:10:42.721Z,1015.50
2018-11-28T01:11:43.350Z,1015.50
2018-11-28T01:12:43.983Z,1015.49
2018-11-28T01:13:44.649Z,1015.49
2018-11-28T01:14:45.317Z,1015.48
2018-11-28T01:15:45.931Z,1015.52
2018-11-28T01:16:46.643Z,1015.50
2018-11-28T01:17:47.231Z,1015.52
2018-11-28T01:18:47.882Z,1015.49
2018-11-28T01:19:48.625Z,1015.49
2018-11-28T01:20:49.189Z,1015.50
2018-11-28T01:21:49.861Z,1015.55
2018-11-28T01:22:50.479Z,1015.51
2018-11-28T01:23:51.102Z,1015.53
2018-11-28T01:24:51.754Z,1015.55
2018-11-28T01:25:52.377Z,1015.52
2018-11-28T01:26:53.141Z,1015.51
2018-11-28T01:27:53.721Z,1015.46
2018-11-28T01:28:54.391Z,1015.54
2018-11-28T01:29:55.025Z,1015.50
2018-11-28T01:30:55.635Z,1015.53
2018-11-28T01:31:56.277Z,1015.52
2018-11-28T01:32:56.969Z,1015.51
2018-11-28T01:33:57.640Z,1015.49
2018-11-28T01:34:58.254Z,1015.48
2018-11-28T01:35:58.959Z,1015.45
2018-11-28T01:36:59.550Z,1015.48
2018-11-28T01:38:00.225Z,1015.48
2018-11-28T01:39:00.809Z,1015.47
2018-11-28T01:40:01.448Z,1015.45
2018-11-28T01:41:02.106Z,1015.47
2018-11-28T01:42:02.774Z,1015.44
2018-11-28T01:43:03.418Z,1015.42
2018-11-28T01:44:04.057Z,1015.35
2018-11-28T01:45:04.685Z,1015.35
2018-11-28T01:46:05.422Z,1015.31
2018-11-28T01:47:05.975Z,1015.31
2018-11-28T01:48:06.618Z,1015.39
2018-11-28T01:49:07.250Z,1015.33
2018-11-28T01:50:07.957Z,1015.36
2018-11-28T01:51:08.590Z,1015.35
2018-11-28T01:52:09.193Z,1015.34
2018-11-28T01:53:09.868Z,1015.31
2018-11-28T01:54:10.478Z,1015.32
2018-11-28T01:55:11.158Z,1015.33
2018-11-28T01:56:11.806Z,1015.31
2018-11-28T01:57:12.483Z,1015.28
2018-11-28T01:58:13.066Z,1015.32
2018-11-28T01:59:13.750Z,1015.35
2018-11-28T02:00:14.542Z,1015.33
2018-11-28T02:01:15.022Z,1015.34
2018-11-28T02:02:15.674Z,1015.36
2018-11-28T02:03:16.331Z,1015.34
2018-11-28T02:04:16.985Z,1015.37
2018-11-28T02:05:17.606Z,1015.35
2018-11-28T02:06:18.317Z,1015.37
2018-11-28T02:07:18.890Z,1015.38
2018-11-28T02:08:19.499Z,1015.37
2018-11-28T02:09:20.218Z,1015.39
2018-11-28T02:10:20.858Z,1015.43
2018-11-28T02:11:21.534Z,1015.42
2018-11-28T02:12:22.072Z,1015.43
2018-11-28T02:13:22.791Z,1015.44
2018-11-28T02:14:23.470Z,1015.41
2018-11-28T02:15:24.013Z,1015.38
2018-11-28T02:16:24.646Z,1015.42
2018-11-28T02:17:25.357Z,1015.42
2018-11-28T02:18:25.959Z,1015.37
2018-11-28T02:19:26.608Z,1015.36
2018-11-28T02:20:27.223Z,1015.41
2018-11-28T02:21:27.926Z,1015.38
2018-11-28T02:22:30.190Z,1015.40
2018-11-28T02:23:30.912Z,1015.37
2018-11-28T02:24:31.443Z,1015.36
2018-11-28T02:25:32.164Z,1015.37
2018-11-28T02:26:32.747Z,1015.38
2018-11-28T02:27:35.195Z,1015.35
2018-11-28T02:28:35.866Z,1015.34
2018-11-28T02:29:36.425Z,1015.35
2018-11-28T02:30:37.083Z,1015.35
2018-11-28T02:31:37.806Z,1015.39
2018-11-28T02:32:38.364Z,1015.36
2018-11-28T02:33:39.061Z,1015.35
2018-11-28T02:34:39.723Z,1015.34
2018-11-28T02:35:40.374Z,1015.37
2018-11-28T02:36:41.134Z,1015.37
2018-11-28T02:37:41.693Z,1015.38
2018-11-28T02:38:42.320Z,1015.33
2018-11-28T02:39:43.097Z,1015.34
2018-11-28T02:40:43.632Z,1015.31
2018-11-28T02:41:44.252Z,1015.29
2018-11-28T02:42:44.894Z,1015.29
2018-11-28T02:43:45.612Z,1015.25
2018-11-28T02:44:46.197Z,1015.23
2018-11-28T02:45:46.957Z,1015.21
2018-11-28T02:46:47.547Z,1015.24
2018-11-28T02:47:48.130Z,1015.23
2018-11-28T02:48:48.852Z,1015.25
2018-11-28T02:49:49.455Z,1015.25
2018-11-28T02:50:50.069Z,1015.26
2018-11-28T02:51:50.714Z,1015.22
2018-11-28T02:52:51.416Z,1015.20
2018-11-28T02:53:52.058Z,1015.20
2018-11-28T02:54:52.653Z,1015.16
2018-11-28T02:55:53.346Z,1015.17
2018-11-28T02:56:53.945Z,1015.19
2018-11-28T02:57:54.664Z,1015.11
2018-11-28T02:58:55.291Z,1015.16
2018-11-28T02:59:55.979Z,1015.15
2018-11-28T03:00:56.556Z,1015.18
2018-11-28T03:01:57.224Z,1015.19
2018-11-28T03:02:57.858Z,1015.17
2018-11-28T03:03:58.487Z,1015.16
2018-11-28T03:04:59.180Z,1015.19
2018-11-28T03:05:59.827Z,1015.22
2018-11-28T03:07:00.473Z,1015.25
2018-11-28T03:08:01.045Z,1015.23
2018-11-28T03:09:01.711Z,1015.27
2018-11-28T03:10:02.339Z,1015.22
2018-11-28T03:11:03.039Z,1015.22
2018-11-28T03:12:03.678Z,1015.24
2018-11-28T03:13:04.346Z,1015.23
2018-11-28T03:14:04.928Z,1015.31
2018-11-28T03:15:05.600Z,1015.29
2018-11-28T03:16:06.280Z,1015.28
2018-11-28T03:17:06.867Z,1015.28
2018-11-28T03:18:07.553Z,1015.25
2018-11-28T03:19:08.235Z,1015.25
2018-11-28T03:20:08.834Z,1015.26
2018-11-28T03:21:09.513Z,1015.30
2018-11-28T03:22:10.133Z,1015.28
2018-11-28T03:23:10.766Z,1015.29
2018-11-28T03:24:11.437Z,1015.26
2018-11-28T03:25:12.074Z,1015.22
2018-11-28T03:26:12.686Z,1015.29
2018-11-28T03:27:13.407Z,1015.26
2018-11-28T03:28:14.017Z,1015.28
2018-11-28T03:29:14.722Z,1015.26
2018-11-28T03:30:15.309Z,1015.25
2018-11-28T03:31:15.933Z,1015.24
2018-11-28T03:32:16.651Z,1015.18
2018-11-28T03:33:17.221Z,1015.19
2018-11-28T03:34:17.937Z,1015.14
2018-11-28T03:35:18.532Z,1015.15
2018-11-28T03:36:19.178Z,1015.10
2018-11-28T03:37:19.879Z,1015.07
2018-11-28T03:38:20.492Z,1015.05
2018-11-28T03:39:21.157Z,1015.09
2018-11-28T03:40:21.803Z,1015.09
2018-11-28T03:41:22.405Z,1015.05
2018-11-28T03:42:22.988Z,1015.02
2018-11-28T03:43:23.638Z,1015.07
2018-11-28T03:44:24.301Z,1015.02
2018-11-28T03:45:24.974Z,1015.04
2018-11-28T03:46:25.594Z,1015.05
2018-11-28T03:47:26.238Z,1015.03
2018-11-28T03:48:26.908Z,1015.05
2018-11-28T03:49:27.544Z,1015.04
2018-11-28T03:50:28.216Z,1015.03
2018-11-28T03:51:28.862Z,1015.02
2018-11-28T03:52:29.473Z,1015.00
2018-11-28T03:53:31.459Z,1014.97
2018-11-28T03:54:39.075Z,1014.96
2018-11-28T03:55:39.850Z,1014.98
2018-11-28T03:56:45.404Z,1015.02
2018-11-28T03:57:52.977Z,1015.02
2018-11-28T03:59:30.217Z,1014.97
2018-11-28T04:09:02.351Z,1014.93
2018-11-28T04:09:57.815Z,1014.90
2018-11-28T04:10:56.806Z,1014.95
2018-11-28T04:11:59.382Z,1014.93
2018-11-28T04:12:58.847Z,1014.98
2018-11-28T04:14:00.508Z,1014.97
2018-11-28T04:14:58.896Z,1014.97
2018-11-28T04:15:59.123Z,1014.93
2018-11-28T04:16:59.799Z,1015.02
2018-11-28T04:18:00.519Z,1015.01
2018-11-28T04:19:01.302Z,1015.05
2018-11-28T04:20:01.977Z,1015.04
2018-11-28T04:21:02.779Z,1015.04
2018-11-28T04:22:03.715Z,1015.07
2018-11-28T04:23:05.814Z,1015.06
2018-11-28T04:26:17.374Z,1015.06
2018-11-28T04:27:10.510Z,1015.11
2018-11-28T04:31:55.207Z,1015.09
2018-11-28T04:38:00.996Z,1015.00
2018-11-28T04:47:00.299Z,1015.08
2018-11-28T04:51:01.725Z,1015.10
2018-11-28T04:54:58.378Z,1015.10
2018-11-28T04:55:59.961Z,1015.00
2018-11-28T04:56:59.861Z,1015.01
2018-11-28T04:58:01.268Z,1014.98
2018-11-28T04:59:00.083Z,1014.96
2018-11-28T05:01:17.763Z,1014.95
2018-11-28T05:02:02.874Z,1014.92
2018-11-28T05:03:03.478Z,1014.96
2018-11-28T05:04:04.208Z,1014.92
2018-11-28T05:05:04.880Z,1014.91
2018-11-28T05:06:05.756Z,1014.88
2018-11-28T05:07:06.456Z,1014.87
2018-11-28T05:08:07.098Z,1014.83
2018-11-28T05:09:07.806Z,1014.84
2018-11-28T05:10:08.755Z,1014.82
2018-11-28T05:11:09.586Z,1014.85
2018-11-28T05:12:10.572Z,1014.82
2018-11-28T05:13:11.318Z,1014.82
2018-11-28T05:14:12.384Z,1014.90
2018-11-28T05:15:13.273Z,1014.86
2018-11-28T05:16:13.944Z,1014.86
2018-11-28T05:17:14.715Z,1014.84
2018-11-28T05:18:15.490Z,1014.83
2018-11-28T05:19:16.408Z,1014.83
2018-11-28T05:20:17.135Z,1014.84
2018-11-28T05:21:17.886Z,1014.84
2018-11-28T05:22:18.688Z,1014.82
2018-11-28T05:23:19.632Z,1014.79
2018-11-28T05:24:20.434Z,1014.80
2018-11-28T05:25:21.274Z,1014.79
2018-11-28T05:26:22.120Z,1014.72
2018-11-28T05:27:22.897Z,1014.74
2018-11-28T05:28:23.542Z,1014.71
2018-11-28T05:29:24.472Z,1014.74
2018-11-28T05:30:26.105Z,1014.74
2018-11-28T05:31:28.783Z,1014.77
2018-11-28T05:32:30.255Z,1014.82
2018-11-28T05:33:31.034Z,1014.84
2018-11-28T05:34:31.889Z,1014.85
2018-11-28T05:35:32.585Z,1014.86
2018-11-28T05:36:33.617Z,1014.85
2018-11-28T05:37:34.345Z,1014.87
2018-11-28T05:38:35.478Z,1014.87
2018-11-28T05:39:36.222Z,1014.89
2018-11-28T05:40:37.083Z,1014.86
2018-11-28T05:41:37.755Z,1014.86
2018-11-28T05:42:38.571Z,1014.80
2018-11-28T05:43:39.234Z,1014.78
2018-11-28T05:44:40.330Z,1014.81
2018-11-28T05:45:41.152Z,1014.79
2018-11-28T05:46:42.229Z,1014.81
2018-11-28T05:47:43.128Z,1014.81
2018-11-28T05:48:44.339Z,1014.82
2018-11-28T05:49:45.126Z,1014.88
2018-11-28T05:50:45.969Z,1014.86
2018-11-28T05:51:46.828Z,1014.87
2018-11-28T05:52:47.569Z,1014.90
2018-11-28T05:53:48.490Z,1014.87
2018-11-28T05:54:49.331Z,1014.88
2018-11-28T05:55:50.072Z,1014.91
2018-11-28T05:56:50.756Z,1014.84
2018-11-28T05:57:51.602Z,1014.80
2018-11-28T05:58:52.453Z,1014.83
2018-11-28T05:59:53.143Z,1014.81
2018-11-28T06:00:53.953Z,1014.86
2018-11-28T06:01:54.677Z,1014.85
2018-11-28T06:02:55.404Z,1014.84
2018-11-28T06:03:56.147Z,1014.84
2018-11-28T06:04:57.076Z,1014.84
2018-11-28T06:05:58.083Z,1014.83
2018-11-28T06:06:58.846Z,1014.85
2018-11-28T06:07:59.542Z,1014.84
2018-11-28T06:09:00.573Z,1014.84
2018-11-28T06:10:01.306Z,1014.80
2018-11-28T06:11:02.014Z,1014.81
2018-11-28T06:12:02.771Z,1014.79
2018-11-28T06:13:03.571Z,1014.81
2018-11-28T06:14:04.548Z,1014.79
2018-11-28T06:15:05.320Z,1014.77
2018-11-28T06:16:06.043Z,1014.73
2018-11-28T06:17:06.778Z,1014.70
2018-11-28T06:18:08.211Z,1014.68
2018-11-28T06:19:08.942Z,1014.66
2018-11-28T06:20:09.735Z,1014.66
2018-11-28T06:21:10.377Z,1014.69
2018-11-28T06:22:11.042Z,1014.68
2018-11-28T06:23:11.860Z,1014.69
2018-11-28T06:24:12.663Z,1014.71
2018-11-28T06:25:16.336Z,1014.73
2018-11-28T06:26:14.101Z,1014.71
2018-11-28T06:27:14.823Z,1014.81
2018-11-28T06:28:15.650Z,1014.76
2018-11-28T06:29:16.375Z,1014.77
2018-11-28T06:30:17.165Z,1014.72
2018-11-28T06:31:18.043Z,1014.73
2018-11-28T06:32:18.959Z,1014.76
2018-11-28T06:33:19.584Z,1014.75
2018-11-28T06:34:20.277Z,1014.73
2018-11-28T06:35:21.542Z,1014.73
